Time;durP1;ratioP1;P1;durP2;ratioP2;P2;SDS_P1;SDS_P2;PMS_P1;PMS_P2;Temp;Humidity;BMP_temperature;BMP_pressure;BME280_temperature;BME280_humidity;BME280_pressure;Samples;Min_cycle;Max_cycle;Signal;HPM_P1;HPM_P2
2022/10/03 00:02:48;;;;;;;1.50;1.40;;;11.80;99.90;;;;;;5007912;28;20443;-64
2022/10/03 00:05:13;;;;;;;1.60;1.50;;;11.80;99.90;;;;;;5029401;28;20926;-64
2022/10/03 00:07:53;;;;;;;2.70;1.60;;;11.80;99.90;;;;;;5046738;28;20442;-64
2022/10/03 00:10:25;;;;;;;2.53;1.50;;;11.80;99.90;;;;;;5010833;28;20183;-61
2022/10/03 00:13:12;;;;;;;1.50;1.40;;;11.80;99.90;;;;;;5030947;28;20453;-64
2022/10/03 00:16:14;;;;;;;2.10;2.00;;;11.80;99.90;;;;;;5022203;28;20878;-64
2022/10/03 00:18:58;;;;;;;2.73;2.10;;;11.80;99.90;;;;;;5034720;28;21162;-64
2022/10/03 00:21:48;;;;;;;3.13;1.90;;;11.80;99.90;;;;;;5027747;28;20417;-64
2022/10/03 00:24:29;;;;;;;4.87;2.60;;;11.80;99.90;;;;;;5023845;28;20452;-65
2022/10/03 00:27:16;;;;;;;2.50;2.10;;;11.80;99.90;;;;;;5025986;28;20492;-64
2022/10/03 00:29:45;;;;;;;3.20;2.60;;;11.80;99.90;;;;;;5030608;28;20410;-61
2022/10/03 00:32:25;;;;;;;2.47;2.20;;;11.80;99.90;;;;;;5012523;28;20549;-63
2022/10/03 00:35:30;;;;;;;3.70;2.10;;;11.80;99.90;;;;;;5030479;28;20421;-64
2022/10/03 00:37:55;;;;;;;1.90;1.80;;;11.80;99.90;;;;;;5023968;28;20438;-64
2022/10/03 00:40:34;;;;;;;2.30;1.90;;;11.80;99.90;;;;;;5017327;28;20444;-64
2022/10/03 00:43:23;;;;;;;2.30;2.10;;;11.80;99.90;;;;;;5028051;28;20685;-64
2022/10/03 00:46:19;;;;;;;3.37;1.73;;;11.80;99.90;;;;;;5021343;28;20453;-63
2022/10/03 00:49:18;;;;;;;3.20;1.70;;;11.80;99.90;;;;;;5015926;28;20414;-63
2022/10/03 00:51:55;;;;;;;2.13;2.00;;;11.80;99.90;;;;;;5023516;28;20533;-62
2022/10/03 00:54:34;;;;;;;2.00;1.80;;;11.70;99.90;;;;;;5021023;28;20568;-64
2022/10/03 00:57:35;;;;;;;2.60;2.40;;;11.70;99.90;;;;;;5029684;28;20521;-63
2022/10/03 01:00:23;;;;;;;8.43;4.77;;;11.70;99.90;;;;;;5005013;28;20442;-65
2022/10/03 01:03:26;;;;;;;4.50;3.97;;;11.70;99.90;;;;;;5024742;28;20398;-65
2022/10/03 01:06:14;;;;;;;2.63;2.40;;;11.70;99.90;;;;;;5024436;28;20453;-64
2022/10/03 01:08:53;;;;;;;1.90;1.80;;;11.70;99.90;;;;;;5030189;28;20530;-64
2022/10/03 01:11:25;;;;;;;2.83;1.53;;;11.70;99.90;;;;;;5021168;28;20431;-64
2022/10/03 01:14:05;;;;;;;2.10;1.90;;;11.70;99.90;;;;;;5016656;28;20465;-64
2022/10/03 01:16:55;;;;;;;2.20;1.83;;;11.60;99.90;;;;;;5027845;28;20449;-64
2022/10/03 01:19:20;;;;;;;2.37;2.00;;;11.60;99.90;;;;;;5030330;28;20933;-63
2022/10/03 01:22:30;;;;;;;2.30;2.10;;;11.50;99.90;;;;;;5027589;28;20414;-64
2022/10/03 01:25:10;;;;;;;4.37;1.73;;;11.50;99.90;;;;;;5006340;28;20172;-65
2022/10/03 01:30:46;;;;;;;6.60;2.40;;;11.30;99.90;;;;;;5023527;28;20879;-64
2022/10/03 01:33:40;;;;;;;3.80;2.40;;;11.20;99.90;;;;;;5025591;28;20454;-64
2022/10/03 01:36:38;;;;;;;5.40;2.50;;;11.20;99.90;;;;;;5026367;28;20457;-65
2022/10/03 01:39:28;;;;;;;4.07;2.37;;;11.00;99.90;;;;;;5005167;28;20423;-64
2022/10/03 01:42:13;;;;;;;2.60;2.30;;;10.90;99.90;;;;;;5025638;28;20492;-64
2022/10/03 01:45:09;;;;;;;6.60;3.10;;;10.90;99.90;;;;;;5005741;28;20963;-65
2022/10/03 01:47:50;;;;;;;4.80;2.43;;;10.70;99.90;;;;;;5022415;28;20447;-64
2022/10/03 01:50:43;;;;;;;3.73;2.63;;;10.70;99.90;;;;;;5044163;28;20423;-64
2022/10/03 01:53:41;;;;;;;5.70;2.73;;;10.60;99.90;;;;;;5010873;28;20461;-64
2022/10/03 01:56:27;;;;;;;5.40;2.17;;;10.50;99.90;;;;;;5018405;28;20444;-64
2022/10/03 01:59:13;;;;;;;2.47;2.27;;;10.50;99.90;;;;;;5025247;28;20437;-62
2022/10/03 02:01:38;;;;;;;7.10;2.67;;;10.40;99.90;;;;;;5027918;28;20445;-61
2022/10/03 02:04:33;;;;;;;7.87;2.97;;;10.30;99.90;;;;;;5019517;28;20439;-64
2022/10/03 02:07:11;;;;;;;9.43;2.70;;;10.20;99.90;;;;;;4985756;28;20263;-64
2022/10/03 02:09:39;;;;;;;7.00;2.90;;;10.20;99.90;;;;;;5028930;28;20949;-60
2022/10/03 02:12:21;;;;;;;4.97;2.67;;;10.20;99.90;;;;;;5027867;28;20604;-63
2022/10/03 02:15:13;;;;;;;4.47;2.30;;;10.10;99.90;;;;;;5021573;28;20524;-64
2022/10/03 02:18:01;;;;;;;4.97;2.50;;;10.10;99.90;;;;;;5023992;28;20448;-65
2022/10/03 02:20:55;;;;;;;5.43;2.70;;;10.00;99.90;;;;;;5008842;28;20461;-63
2022/10/03 02:23:43;;;;;;;4.30;2.53;;;10.00;99.90;;;;;;5023470;28;20439;-63
2022/10/03 02:26:27;;;;;;;6.80;3.50;;;9.90;99.90;;;;;;5021106;28;20578;-64
2022/10/03 02:29:30;;;;;;;5.03;2.73;;;9.80;99.90;;;;;;5027893;28;20452;-64
2022/10/03 02:32:14;;;;;;;6.83;3.30;;;9.80;99.90;;;;;;5028064;28;20437;-66
2022/10/03 02:35:10;;;;;;;4.43;2.80;;;9.70;99.90;;;;;;5018859;28;20427;-67
2022/10/03 02:37:57;;;;;;;5.67;3.13;;;9.60;99.90;;;;;;5025301;28;20432;-64
2022/10/03 02:40:41;;;;;;;3.37;2.83;;;9.60;99.90;;;;;;5063459;23;21109;-61
2022/10/03 02:43:44;;;;;;;7.30;3.17;;;9.50;99.90;;;;;;5024771;28;20442;-59
2022/10/03 02:46:42;;;;;;;5.10;2.87;;;9.50;99.90;;;;;;5013458;28;20712;-58
2022/10/03 02:49:33;;;;;;;5.73;3.10;;;9.40;99.90;;;;;;5010190;28;20493;-57
2022/10/03 02:52:29;;;;;;;3.90;2.83;;;9.30;99.90;;;;;;5011634;28;20420;-60
2022/10/03 02:55:27;;;;;;;5.70;3.07;;;9.30;99.90;;;;;;5030019;28;20426;-59
2022/10/03 02:58:13;;;;;;;8.57;3.57;;;9.20;99.90;;;;;;5027784;28;20430;-57
2022/10/03 03:00:50;;;;;;;5.33;2.83;;;9.20;99.90;;;;;;5009780;28;20435;-57
2022/10/03 03:03:43;;;;;;;3.00;2.80;;;9.10;99.90;;;;;;5028681;28;20429;-58
2022/10/03 03:06:37;;;;;;;6.83;3.60;;;9.10;99.90;;;;;;5021582;28;20482;-57
2022/10/03 03:09:28;;;;;;;6.43;3.50;;;9.10;99.90;;;;;;4979892;28;20451;-58
2022/10/03 03:12:19;;;;;;;19.60;11.00;;;9.00;99.90;;;;;;5017087;28;20461;-62
2022/10/03 03:14:56;;;;;;;20.40;8.87;;;9.00;99.90;;;;;;5024831;28;20783;-64
2022/10/03 03:18:00;;;;;;;8.07;5.70;;;8.90;99.90;;;;;;5017256;28;20400;-61
2022/10/03 03:20:50;;;;;;;3.60;3.30;;;8.90;99.90;;;;;;4976394;28;20446;-61
2022/10/03 03:23:43;;;;;;;8.60;3.40;;;8.80;99.90;;;;;;4978538;28;20439;-57
2022/10/03 03:26:27;;;;;;;7.13;3.37;;;8.80;99.90;;;;;;5019066;28;20425;-58
2022/10/03 03:29:24;;;;;;;3.67;2.70;;;8.70;99.90;;;;;;5028392;28;20442;-54
2022/10/03 03:32:15;;;;;;;7.93;3.20;;;8.60;99.90;;;;;;5027704;28;20402;-57
2022/10/03 03:35:28;;;;;;;4.13;2.93;;;8.60;99.90;;;;;;5009460;28;20497;-59
2022/10/03 03:38:11;;;;;;;6.57;3.57;;;8.60;99.90;;;;;;4998282;28;20439;-55
2022/10/03 03:41:14;;;;;;;7.93;3.60;;;8.60;99.90;;;;;;5027076;28;20454;-58
2022/10/03 03:43:54;;;;;;;8.23;4.13;;;8.60;99.90;;;;;;5026949;28;20905;-56
2022/10/03 03:46:44;;;;;;;18.03;4.33;;;8.70;99.90;;;;;;5024356;28;20424;-55
2022/10/03 03:49:13;;;;;;;41.03;5.40;;;8.70;99.90;;;;;;5025091;28;20438;-56
2022/10/03 03:51:53;;;;;;;35.80;5.70;;;8.80;99.90;;;;;;5010252;28;20980;-60
2022/10/03 03:54:39;;;;;;;12.47;5.17;;;8.80;99.90;;;;;;5014459;28;20511;-57
2022/10/03 03:57:04;;;;;;;39.00;7.53;;;8.70;99.90;;;;;;5027100;28;20453;-56
2022/10/03 04:00:01;;;;;;;6.67;4.60;;;8.80;99.90;;;;;;5027766;28;20477;-60
2022/10/03 04:02:59;;;;;;;27.37;6.10;;;8.80;99.90;;;;;;5033128;28;20175;-57
2022/10/03 04:05:55;;;;;;;12.57;4.83;;;8.80;99.90;;;;;;5032880;28;20430;-57
2022/10/03 04:09:00;;;;;;;10.90;5.20;;;8.80;99.90;;;;;;5016032;28;20406;-58
2022/10/03 04:11:58;;;;;;;9.60;5.00;;;8.90;99.90;;;;;;5015085;28;20930;-57
2022/10/03 04:14:32;;;;;;;14.70;4.60;;;8.90;99.90;;;;;;4995508;28;20549;-56
2022/10/03 04:20:34;;;;;;;31.77;7.00;;;8.90;99.90;;;;;;5016177;28;20589;-57
2022/10/03 04:23:18;;;;;;;10.80;5.40;;;8.90;99.90;;;;;;5003376;28;20449;-58
2022/10/03 04:26:20;;;;;;;8.77;5.40;;;8.90;99.90;;;;;;5023760;28;20426;-57
2022/10/03 04:29:16;;;;;;;31.80;5.80;;;8.90;99.90;;;;;;5032036;28;21147;-55
2022/10/03 04:31:45;;;;;;;11.27;4.20;;;8.90;99.90;;;;;;5026593;28;20449;-57
2022/10/03 04:34:45;;;;;;;18.07;5.60;;;8.80;99.90;;;;;;5033039;28;20462;-58
2022/10/03 04:37:20;;;;;;;45.63;6.40;;;8.80;99.90;;;;;;5023400;28;20427;-60
2022/10/03 04:39:56;;;;;;;7.87;4.97;;;8.80;99.90;;;;;;5028262;28;20500;-56
2022/10/03 04:42:46;;;;;;;30.50;5.80;;;8.70;99.90;;;;;;5021162;28;20975;-58
2022/10/03 04:45:11;;;;;;;31.23;5.60;;;8.70;99.90;;;;;;5031430;28;20423;-61
2022/10/03 04:47:51;;;;;;;72.47;7.60;;;8.80;99.90;;;;;;5027419;28;21050;-58
2022/10/03 04:50:29;;;;;;;73.93;7.53;;;8.70;99.90;;;;;;5028537;28;20202;-57
2022/10/03 04:53:08;;;;;;;29.43;4.83;;;8.70;99.90;;;;;;5017559;28;20454;-57
2022/10/03 04:56:11;;;;;;;38.57;5.10;;;8.60;99.90;;;;;;5031031;28;20437;-64
2022/10/03 04:58:52;;;;;;;32.97;5.10;;;8.60;99.90;;;;;;5024261;28;20433;-58
2022/10/03 05:01:25;;;;;;;53.93;4.87;;;8.60;99.90;;;;;;5032202;28;20399;-62
2022/10/03 05:04:14;;;;;;;45.63;4.87;;;8.60;99.90;;;;;;5032362;28;20838;-56
2022/10/03 05:06:47;;;;;;;75.47;7.77;;;8.60;99.90;;;;;;5015825;28;20492;-56
2022/10/03 05:09:25;;;;;;;31.20;4.60;;;8.50;99.90;;;;;;5014257;28;20451;-59
2022/10/03 05:11:58;;;;;;;20.07;4.23;;;8.50;99.90;;;;;;5018605;28;20431;-61
2022/10/03 05:14:52;;;;;;;30.80;4.30;;;8.40;99.90;;;;;;5014213;28;20459;-57
2022/10/03 05:17:26;;;;;;;24.13;4.00;;;8.40;99.90;;;;;;5032421;28;20410;-56
2022/10/03 05:20:21;;;;;;;19.07;4.20;;;8.40;99.90;;;;;;5031758;28;20442;-59
2022/10/03 05:23:10;;;;;;;40.37;5.00;;;8.40;99.90;;;;;;5016485;28;20431;-57
2022/10/03 05:26:11;;;;;;;11.90;4.33;;;8.40;99.90;;;;;;5028709;28;20529;-57
2022/10/03 05:28:42;;;;;;;8.13;4.17;;;8.40;99.90;;;;;;5031867;28;20468;-60
2022/10/03 05:31:53;;;;;;;9.23;4.50;;;8.40;99.90;;;;;;5020218;28;20523;-58
2022/10/03 05:34:35;;;;;;;28.10;4.70;;;8.40;99.90;;;;;;5023687;28;20487;-55
2022/10/03 05:37:26;;;;;;;36.93;5.70;;;8.30;99.90;;;;;;5051837;28;20571;-56
2022/10/03 05:40:11;;;;;;;12.97;5.10;;;8.30;99.90;;;;;;5020779;28;21011;-59
2022/10/03 05:42:36;;;;;;;11.03;4.53;;;8.30;99.90;;;;;;5020070;28;20427;-55
2022/10/03 05:45:04;;;;;;;7.67;5.10;;;8.30;99.90;;;;;;5022684;28;20419;-59
2022/10/03 05:48:09;;;;;;;30.93;5.00;;;8.30;99.90;;;;;;5012052;28;20165;-60
2022/10/03 05:50:57;;;;;;;21.60;5.40;;;8.30;99.90;;;;;;4998119;28;20506;-59
2022/10/03 05:54:10;;;;;;;69.30;6.33;;;8.30;99.90;;;;;;5028983;28;20951;-56
2022/10/03 05:57:10;;;;;;;25.57;4.40;;;8.30;99.90;;;;;;4989758;28;20435;-58
2022/10/03 05:59:53;;;;;;;7.10;3.97;;;8.20;99.90;;;;;;5020117;28;20533;-55
2022/10/03 06:02:45;;;;;;;125.83;7.20;;;8.20;99.90;;;;;;5031530;28;20398;-58
2022/10/03 06:05:32;;;;;;;78.17;6.87;;;8.20;99.90;;;;;;5030686;28;20407;-58
2022/10/03 06:08:22;;;;;;;19.47;4.83;;;8.20;99.90;;;;;;5011171;28;20403;-55
2022/10/03 06:11:33;;;;;;;13.03;3.83;;;8.20;99.90;;;;;;5019372;28;20529;-55
2022/10/03 06:14:30;;;;;;;27.17;4.50;;;8.20;99.90;;;;;;5010155;28;20514;-62
2022/10/03 06:16:58;;;;;;;19.60;4.40;;;8.20;99.90;;;;;;5023521;28;20433;-55
2022/10/03 06:19:44;;;;;;;17.37;3.63;;;8.20;99.90;;;;;;5008022;28;20816;-57
2022/10/03 06:22:47;;;;;;;132.00;8.10;;;8.20;99.90;;;;;;5015549;28;20412;-60
2022/10/03 06:25:50;;;;;;;65.30;6.10;;;8.30;99.90;;;;;;5014177;28;20423;-57
2022/10/03 06:28:34;;;;;;;41.63;5.50;;;8.20;99.90;;;;;;5020506;28;20505;-59
2022/10/03 06:31:03;;;;;;;23.20;4.80;;;8.20;99.90;;;;;;5016408;28;20830;-59
2022/10/03 06:33:52;;;;;;;122.87;8.83;;;8.10;99.90;;;;;;5014092;28;20530;-56
2022/10/03 06:36:18;;;;;;;89.87;5.43;;;8.00;99.90;;;;;;5030776;28;20442;-63
2022/10/03 06:39:09;;;;;;;5.47;3.20;;;8.00;99.90;;;;;;5011561;28;20457;-57
2022/10/03 06:41:57;;;;;;;75.63;5.80;;;7.90;99.90;;;;;;5006111;28;20426;-59
2022/10/03 06:44:31;;;;;;;10.57;4.00;;;7.90;99.90;;;;;;5007190;28;20437;-57
2022/10/03 06:47:20;;;;;;;14.43;4.67;;;7.90;99.90;;;;;;5021348;28;20434;-60
2022/10/03 06:50:11;;;;;;;13.60;5.00;;;8.00;99.90;;;;;;5024174;28;20497;-58
2022/10/03 06:53:03;;;;;;;90.23;9.30;;;8.00;99.90;;;;;;5023408;28;20457;-59
2022/10/03 06:55:53;;;;;;;34.53;5.10;;;8.10;99.90;;;;;;5010411;28;20481;-58
2022/10/03 06:59:04;;;;;;;56.67;6.83;;;8.10;99.90;;;;;;5017309;28;20967;-59
2022/10/03 07:02:07;;;;;;;102.70;10.13;;;8.20;99.90;;;;;;5025362;28;20847;-56
2022/10/03 07:04:54;;;;;;;161.70;10.50;;;8.30;99.90;;;;;;5020115;28;20433;-56
2022/10/03 07:07:55;;;;;;;25.10;7.10;;;8.20;99.90;;;;;;5019866;28;20542;-58
2022/10/03 07:10:43;;;;;;;50.60;5.93;;;8.20;99.90;;;;;;5025152;28;20443;-58
2022/10/03 07:13:33;;;;;;;11.80;4.93;;;8.20;99.90;;;;;;5022125;28;20915;-58
2022/10/03 07:16:10;;;;;;;62.53;5.90;;;8.20;99.90;;;;;;5025064;28;20525;-56
2022/10/03 07:19:13;;;;;;;35.23;5.90;;;8.20;99.90;;;;;;5024382;28;20434;-58
2022/10/03 07:22:03;;;;;;;43.87;6.33;;;8.30;99.90;;;;;;5022448;28;20479;-56
2022/10/03 07:24:39;;;;;;;25.50;5.30;;;8.30;99.90;;;;;;5026381;28;20484;-61
2022/10/03 07:27:32;;;;;;;24.30;5.13;;;8.30;99.90;;;;;;5026268;28;20445;-57
2022/10/03 07:30:04;;;;;;;27.20;7.30;;;8.30;99.90;;;;;;5023571;28;20433;-59
2022/10/03 07:32:54;;;;;;;16.67;5.43;;;8.40;99.90;;;;;;5036783;28;20404;-58
2022/10/03 07:38:56;;;;;;;20.27;5.30;;;8.30;99.90;;;;;;5007615;28;20423;-60
2022/10/03 07:39:02;;;;;;;15.23;4.97;;;8.30;99.90;;;;;;5021000;28;21189;-56
2022/10/03 07:41:40;;;;;;;79.70;7.90;;;8.30;99.90;;;;;;4973285;28;20439;-57
2022/10/03 07:44:12;;;;;;;65.07;7.30;;;8.40;99.90;;;;;;4963892;28;20441;-57
2022/10/03 07:47:13;;;;;;;52.93;7.20;;;8.40;99.90;;;;;;4989768;28;20430;-56
2022/10/03 07:50:00;;;;;;;16.00;6.43;;;8.40;99.90;;;;;;4945715;29;20540;-56
2022/10/03 07:52:56;;;;;;;32.13;6.90;;;8.50;99.90;;;;;;5017093;28;20438;-58
2022/10/03 07:55:49;;;;;;;20.43;7.27;;;8.60;99.90;;;;;;5025126;28;20475;-58
2022/10/03 07:58:38;;;;;;;18.50;6.47;;;8.60;99.90;;;;;;5015944;28;20441;-58
2022/10/03 08:01:09;;;;;;;81.57;8.17;;;8.60;99.90;;;;;;5026980;28;20947;-62
2022/10/03 08:03:53;;;;;;;20.47;6.70;;;8.70;99.90;;;;;;5026819;28;20409;-55
2022/10/03 08:06:42;;;;;;;40.17;6.80;;;8.70;99.90;;;;;;5024520;28;20430;-58
2022/10/03 08:09:26;;;;;;;25.73;7.30;;;8.70;99.90;;;;;;5021364;28;20452;-64
2022/10/03 08:12:20;;;;;;;14.87;6.27;;;8.70;99.90;;;;;;5025562;28;20466;-65
2022/10/03 08:15:27;;;;;;;30.73;7.00;;;8.80;99.90;;;;;;5024180;28;20458;-60
2022/10/03 08:18:22;;;;;;;8.70;6.40;;;8.90;99.90;;;;;;5022973;28;20464;-58
2022/10/03 08:20:59;;;;;;;9.30;5.30;;;9.00;99.90;;;;;;5024379;28;20528;-57
2022/10/03 08:23:51;;;;;;;11.20;6.27;;;9.10;99.90;;;;;;4987701;28;20495;-59
2022/10/03 08:26:29;;;;;;;94.10;9.60;;;9.30;99.90;;;;;;5021147;28;20790;-58
2022/10/03 08:29:22;;;;;;;16.93;7.00;;;9.40;99.90;;;;;;5018361;28;20557;-58
2022/10/03 08:32:00;;;;;;;13.63;7.70;;;9.40;99.90;;;;;;5026936;28;20406;-61
2022/10/03 08:34:34;;;;;;;14.00;7.83;;;9.50;99.90;;;;;;5018420;28;20462;-56
2022/10/03 08:37:06;;;;;;;43.17;9.50;;;9.60;99.90;;;;;;5023125;28;20427;-61
2022/10/03 08:39:59;;;;;;;17.20;7.47;;;9.70;99.90;;;;;;5018669;28;20462;-63
2022/10/03 08:42:42;;;;;;;14.00;8.00;;;9.70;99.90;;;;;;5013628;28;20530;-57
2022/10/03 08:45:32;;;;;;;16.20;9.30;;;9.80;99.90;;;;;;5019022;28;20430;-60
2022/10/03 08:48:34;;;;;;;12.40;7.60;;;9.90;99.90;;;;;;5015786;28;20852;-56
2022/10/03 08:51:00;;;;;;;14.20;8.67;;;10.10;99.90;;;;;;5025140;28;20430;-57
2022/10/03 08:53:56;;;;;;;12.10;8.00;;;10.20;99.90;;;;;;5051464;22;20488;-64
2022/10/03 08:56:49;;;;;;;11.40;8.00;;;10.30;99.90;;;;;;5020377;28;20212;-69
2022/10/03 08:59:31;;;;;;;10.50;7.40;;;10.40;99.90;;;;;;5021280;28;20473;-68
2022/10/03 09:02:10;;;;;;;10.73;7.90;;;10.50;99.90;;;;;;5009734;28;20422;-66
2022/10/03 09:04:55;;;;;;;12.17;7.40;;;10.60;99.90;;;;;;5018212;28;20871;-67
2022/10/03 09:07:41;;;;;;;10.47;6.70;;;10.80;99.90;;;;;;5006128;28;20514;-61
2022/10/03 09:10:35;;;;;;;8.70;6.63;;;11.00;99.90;;;;;;5005987;28;20863;-64
2022/10/03 09:13:30;;;;;;;10.27;6.10;;;11.20;99.90;;;;;;5005584;28;20459;-65
2022/10/03 09:16:08;;;;;;;10.20;6.83;;;11.30;99.90;;;;;;5001166;28;20439;-64
2022/10/03 09:18:44;;;;;;;8.50;6.50;;;11.50;99.90;;;;;;5002169;28;21030;-64
2022/10/03 09:21:34;;;;;;;10.13;6.60;;;11.70;99.90;;;;;;5003015;28;20424;-64
2022/10/03 09:24:05;;;;;;;11.63;6.10;;;11.70;99.90;;;;;;5001503;28;22298;-64
2022/10/03 09:26:54;;;;;;;9.67;5.23;;;11.90;99.90;;;;;;5001896;28;20430;-65
2022/10/03 09:29:23;;;;;;;13.57;5.60;;;11.90;99.90;;;;;;4997382;28;20435;-65
2022/10/03 09:32:19;;;;;;;7.77;5.03;;;11.90;99.90;;;;;;4993065;28;20446;-65
2022/10/03 09:35:26;;;;;;;5.90;5.30;;;11.90;99.90;;;;;;4998159;28;20838;-65
2022/10/03 09:38:18;;;;;;;11.50;5.03;;;12.10;99.90;;;;;;5000625;28;20439;-65
2022/10/03 09:41:17;;;;;;;10.33;5.27;;;12.30;99.90;;;;;;5002395;28;20436;-65
2022/10/03 09:44:01;;;;;;;12.07;5.97;;;12.50;99.90;;;;;;5005002;28;20459;-65
2022/10/03 09:46:42;;;;;;;8.17;5.27;;;12.70;99.90;;;;;;5007668;28;20969;-65
2022/10/03 09:49:24;;;;;;;6.27;5.33;;;12.80;99.90;;;;;;5009309;28;20545;-66
2022/10/03 09:52:09;;;;;;;6.73;4.67;;;13.00;99.90;;;;;;5023125;28;20514;-65
2022/10/03 09:54:34;;;;;;;8.30;4.73;;;13.10;99.90;;;;;;5013374;28;20488;-65
2022/10/03 09:57:39;;;;;;;8.93;4.70;;;13.30;99.90;;;;;;5008476;28;20945;-66
2022/10/03 10:00:19;;;;;;;8.40;4.70;;;13.40;99.90;;;;;;5006781;28;20180;-66
2022/10/03 10:03:06;;;;;;;6.83;4.50;;;13.60;99.90;;;;;;5007053;28;20435;-66
2022/10/03 10:06:09;;;;;;;8.87;4.43;;;13.70;99.90;;;;;;5003040;28;20432;-64
2022/10/03 10:08:37;;;;;;;14.00;5.00;;;13.90;99.90;;;;;;5002500;28;20438;-65
2022/10/03 10:11:18;;;;;;;8.43;4.10;;;14.00;99.90;;;;;;5006847;28;21057;-65
2022/10/03 10:13:56;;;;;;;5.50;3.30;;;14.10;99.90;;;;;;5004210;28;20463;-65
2022/10/03 10:16:39;;;;;;;7.80;3.43;;;14.30;99.90;;;;;;5004726;28;20447;-65
2022/10/03 10:19:23;;;;;;;5.60;3.27;;;14.30;99.90;;;;;;5007248;28;21088;-65
2022/10/03 10:22:16;;;;;;;3.83;2.63;;;14.30;95.00;;;;;;5003943;28;20459;-64
2022/10/03 10:25:04;;;;;;;2.60;2.30;;;14.30;93.80;;;;;;5006703;28;20459;-63
2022/10/03 10:28:01;;;;;;;3.60;2.30;;;14.40;92.10;;;;;;4995473;28;20439;-65
2022/10/03 10:30:45;;;;;;;6.20;3.10;;;14.50;90.50;;;;;;4986279;28;20443;-65
2022/10/03 10:33:33;;;;;;;4.40;2.80;;;14.50;91.90;;;;;;5004403;28;20489;-64
2022/10/03 10:36:20;;;;;;;3.20;2.87;;;14.30;96.80;;;;;;4999748;28;20438;-64
2022/10/03 10:39:21;;;;;;;5.87;3.27;;;14.30;99.90;;;;;;5000569;28;20428;-66
2022/10/03 10:42:14;;;;;;;4.10;2.27;;;14.50;99.90;;;;;;4999007;28;20694;-64
2022/10/03 10:45:10;;;;;;;7.20;3.20;;;14.80;98.90;;;;;;5002865;28;20447;-65
2022/10/03 10:48:23;;;;;;;8.20;3.97;;;15.10;99.10;;;;;;4997506;28;20440;-66
2022/10/03 10:51:20;;;;;;;10.00;3.50;;;15.40;96.90;;;;;;4959547;28;20438;-65
2022/10/03 10:54:04;;;;;;;5.43;2.93;;;15.60;96.40;;;;;;4999683;28;20885;-64
2022/10/03 10:57:04;;;;;;;5.70;2.70;;;15.90;90.20;;;;;;5002169;28;20499;-64
2022/10/03 10:59:50;;;;;;;3.13;2.57;;;16.10;84.20;;;;;;5003176;28;20434;-65
2022/10/03 11:02:46;;;;;;;3.43;2.50;;;16.20;78.20;;;;;;5006386;28;20820;-64
2022/10/03 11:05:33;;;;;;;4.37;2.97;;;16.40;84.60;;;;;;4999214;28;20440;-65
2022/10/03 11:08:11;;;;;;;9.17;2.77;;;16.60;76.80;;;;;;4999812;28;20957;-64
2022/10/03 11:10:58;;;;;;;3.00;2.70;;;16.90;64.60;;;;;;5005054;28;20507;-65
2022/10/03 11:14:01;;;;;;;8.97;3.00;;;17.10;66.50;;;;;;4999556;28;20468;-64
2022/10/03 11:16:53;;;;;;;7.87;2.80;;;17.40;71.00;;;;;;5001313;28;20531;-65
2022/10/03 11:19:37;;;;;;;5.43;2.50;;;17.90;65.40;;;;;;4977909;28;20818;-65
2022/10/03 11:22:27;;;;;;;5.00;2.50;;;18.30;66.80;;;;;;5001792;28;20522;-64
2022/10/03 11:25:13;;;;;;;5.33;2.73;;;19.00;64.80;;;;;;4999467;28;20999;-64
2022/10/03 11:28:01;;;;;;;4.30;2.60;;;19.60;60.50;;;;;;5003336;28;20439;-65
2022/10/03 11:31:11;;;;;;;4.47;2.60;;;19.40;57.00;;;;;;5005680;28;20938;-64
2022/10/03 11:34:04;;;;;;;3.63;2.67;;;19.10;57.60;;;;;;5014559;28;20557;-65
2022/10/03 11:37:08;;;;;;;5.13;3.23;;;19.40;58.60;;;;;;5004450;28;20466;-65
2022/10/03 11:40:06;;;;;;;3.97;2.83;;;19.60;57.40;;;;;;5003313;28;20438;-68
2022/10/03 11:42:41;;;;;;;3.40;2.50;;;19.80;56.40;;;;;;5002433;28;20423;-68
2022/10/03 11:45:23;;;;;;;4.13;2.27;;;19.80;56.20;;;;;;5006373;28;20443;-68
2022/10/03 11:47:51;;;;;;;2.77;2.53;;;19.40;54.00;;;;;;5001288;28;20438;-68
2022/10/03 11:50:25;;;;;;;4.93;2.23;;;19.10;57.00;;;;;;5005216;28;20475;-68
2022/10/03 11:53:28;;;;;;;4.23;2.43;;;19.10;58.30;;;;;;5003346;28;20486;-68
2022/10/03 11:55:53;;;;;;;4.57;2.43;;;19.10;57.80;;;;;;5000142;28;20434;-67
2022/10/03 11:58:54;;;;;;;6.63;2.87;;;18.90;57.40;;;;;;5005287;28;20427;-67
2022/10/03 12:01:57;;;;;;;3.43;2.50;;;18.30;57.40;;;;;;5005890;28;20172;-68
2022/10/03 12:04:55;;;;;;;5.63;3.03;;;17.70;57.60;;;;;;5004059;28;21204;-67
2022/10/03 12:11:17;;;;;;;4.33;2.23;;;16.50;58.00;;;;;;5002858;28;20413;-67
2022/10/03 12:13:55;;;;;;;4.93;2.50;;;16.10;60.80;;;;;;5002917;28;20469;-67
2022/10/03 12:16:31;;;;;;;6.17;2.97;;;15.90;67.80;;;;;;4998583;28;20431;-67
2022/10/03 12:19:30;;;;;;;5.93;2.60;;;15.90;71.60;;;;;;5005534;28;20482;-66
2022/10/03 12:22:07;;;;;;;4.40;2.60;;;16.20;64.00;;;;;;5008459;28;20419;-67
2022/10/03 12:24:41;;;;;;;3.40;2.53;;;16.30;62.50;;;;;;5006080;28;20460;-64
2022/10/03 12:27:22;;;;;;;5.53;3.03;;;16.80;63.30;;;;;;5007677;28;20431;-65
2022/10/03 12:30:01;;;;;;;10.80;2.83;;;17.50;59.50;;;;;;5012371;28;20419;-65
2022/10/03 12:32:45;;;;;;;6.60;3.03;;;18.10;57.00;;;;;;4994400;28;20422;-65
2022/10/03 12:35:25;;;;;;;6.90;2.53;;;18.70;57.00;;;;;;5016217;28;20542;-66
2022/10/03 12:37:57;;;;;;;9.37;2.80;;;19.20;57.80;;;;;;5007032;28;21224;-70
2022/10/03 12:40:29;;;;;;;7.70;2.43;;;19.60;53.60;;;;;;5009040;28;20479;-65
2022/10/03 12:43:33;;;;;;;4.80;2.67;;;20.00;53.80;;;;;;5007568;28;20438;-64
2022/10/03 12:46:10;;;;;;;6.90;2.83;;;20.40;53.80;;;;;;5005219;28;20856;-66
2022/10/03 12:48:43;;;;;;;4.80;2.60;;;20.90;53.50;;;;;;5006397;28;21083;-66
2022/10/03 12:51:53;;;;;;;7.27;2.87;;;21.10;53.10;;;;;;5002754;28;20434;-66
2022/10/03 12:54:40;;;;;;;2.57;2.37;;;21.10;51.10;;;;;;5001591;28;21016;-66
2022/10/03 12:57:14;;;;;;;5.00;2.20;;;20.80;51.80;;;;;;5005547;28;20426;-65
2022/10/03 13:00:07;;;;;;;9.53;2.50;;;20.50;52.60;;;;;;5006675;28;20431;-65
2022/10/03 13:02:46;;;;;;;3.00;2.23;;;20.10;52.30;;;;;;5007912;28;20449;-65
2022/10/03 13:05:35;;;;;;;6.43;2.27;;;19.80;53.20;;;;;;5010094;28;20868;-65
2022/10/03 13:08:36;;;;;;;4.23;2.00;;;19.80;53.70;;;;;;4994319;28;20511;-65
2022/10/03 13:11:22;;;;;;;4.83;2.40;;;19.50;52.50;;;;;;5004622;28;20448;-68
2022/10/03 13:14:14;;;;;;;8.83;4.67;;;19.00;53.30;;;;;;5005338;28;20550;-66
2022/10/03 13:17:07;;;;;;;19.10;9.20;;;18.50;54.70;;;;;;5002240;28;20506;-65
2022/10/03 13:20:01;;;;;;;14.00;8.13;;;18.00;56.00;;;;;;5007629;28;20439;-65
2022/10/03 13:22:33;;;;;;;4.80;2.73;;;17.40;57.30;;;;;;4981611;28;20833;-66
2022/10/03 13:25:30;;;;;;;15.67;8.70;;;17.10;58.20;;;;;;5005417;28;20533;-65
2022/10/03 13:28:20;;;;;;;22.13;11.53;;;16.90;59.50;;;;;;5003358;28;20439;-65
2022/10/03 13:30:50;;;;;;;14.23;7.57;;;16.70;60.80;;;;;;5005444;28;20435;-65
2022/10/03 13:33:31;;;;;;;4.70;2.97;;;16.60;65.50;;;;;;5002408;28;20481;-66
2022/10/03 13:36:13;;;;;;;6.37;2.97;;;17.20;60.20;;;;;;5002797;28;20510;-66
2022/10/03 13:39:10;;;;;;;3.10;2.37;;;17.90;57.70;;;;;;4997491;28;20423;-66
2022/10/03 13:42:00;;;;;;;4.07;3.00;;;18.60;56.60;;;;;;5003115;28;20428;-68
2022/10/03 13:44:40;;;;;;;7.10;2.93;;;19.10;55.20;;;;;;5001084;28;20849;-66
2022/10/03 13:47:28;;;;;;;5.20;2.50;;;19.50;52.90;;;;;;5009262;28;20431;-65
2022/10/03 13:50:00;;;;;;;3.70;2.30;;;19.90;53.00;;;;;;5004765;28;20431;-66
2022/10/03 13:52:40;;;;;;;3.17;2.20;;;20.20;50.60;;;;;;5003688;28;20431;-67
2022/10/03 13:55:25;;;;;;;3.87;2.73;;;20.60;49.20;;;;;;4999895;28;20474;-66
2022/10/03 13:58:16;;;;;;;3.37;2.60;;;20.90;49.20;;;;;;5001822;28;20459;-65
2022/10/03 14:00:56;;;;;;;6.30;2.53;;;21.20;47.70;;;;;;4997072;28;20450;-66
2022/10/03 14:03:44;;;;;;;6.87;2.43;;;20.80;48.80;;;;;;5010707;28;20478;-68
2022/10/03 14:06:19;;;;;;;11.80;2.60;;;20.30;49.50;;;;;;5025705;28;20470;-65
2022/10/03 14:09:19;;;;;;;5.90;2.27;;;19.90;50.80;;;;;;5002054;28;20449;-66
2022/10/03 14:11:59;;;;;;;5.43;2.67;;;19.50;52.00;;;;;;4995865;28;20436;-69
2022/10/03 14:14:46;;;;;;;8.90;2.57;;;19.10;53.40;;;;;;5003092;28;20463;-64
2022/10/03 14:17:17;;;;;;;4.50;2.53;;;18.70;53.60;;;;;;5006847;28;20419;-65
2022/10/03 14:20:07;;;;;;;4.63;2.43;;;18.40;54.50;;;;;;5004197;28;20428;-65
2022/10/03 14:22:53;;;;;;;6.00;2.50;;;18.00;54.30;;;;;;5004384;28;20441;-67
2022/10/03 14:25:19;;;;;;;5.83;2.20;;;17.70;55.20;;;;;;5005379;28;20454;-67
2022/10/03 14:28:13;;;;;;;5.67;2.97;;;17.40;57.30;;;;;;5004521;28;20518;-63
2022/10/03 14:31:03;;;;;;;4.30;3.03;;;17.10;58.70;;;;;;4977917;28;20539;-64
2022/10/03 14:33:31;;;;;;;7.20;2.70;;;16.90;61.90;;;;;;4998825;28;20464;-64
2022/10/03 14:36:21;;;;;;;5.40;2.80;;;16.80;64.10;;;;;;5001820;28;20469;-64
2022/10/03 14:39:02;;;;;;;4.30;2.73;;;17.10;67.20;;;;;;5008151;28;20415;-64
2022/10/03 14:41:45;;;;;;;5.67;2.27;;;17.80;65.50;;;;;;4998767;28;20432;-65